RJA65B OEJN-OJAI
Flight info
| Callsign | RJA65B |
|---|---|
| Flight time | 1h 43m |
| Altitude | 38000 |
| Route | MIGDA L677 WEJ M449 MUNRA |
| Aircraft | B78X/H-SDE1E2E3FGHIJ2J3J4J5M1RWXY/LB1D1 |
Departure
| Time | 2026-05-04 15:43 |
|---|---|
| Airport | King Abdulaziz International Airport (OEJN) |
Arrival
| Time | 2026-05-04 17:26 |
|---|---|
| Airport | Queen Alia International Airport (OJAI) |
| Time | Latitude | Longitude | Altitude | Speed | Heading |
|---|---|---|---|---|---|
| 2026-05-04 15:01 | 21.66787 | 39.16987 | 49 ft | 0 kts | 66° |
| 2026-05-04 15:30 | 21.66777 | 39.16962 | 43 ft | 3 kts | 66° |
| 2026-05-04 15:31 | 21.66775 | 39.16958 | 43 ft | 0 kts | 66° |
| 2026-05-04 15:31 | 21.66772 | 39.16952 | 43 ft | 0 kts | 66° |
| 2026-05-04 15:32 | 21.66768 | 39.16942 | 47 ft | 0 kts | 66° |
| 2026-05-04 15:33 | 21.66754 | 39.16907 | 42 ft | 3 kts | 66° |
| 2026-05-04 15:34 | 21.66730 | 39.16851 | 43 ft | 3 kts | 66° |
| 2026-05-04 15:34 | 21.66722 | 39.16832 | 42 ft | 3 kts | 66° |
| 2026-05-04 15:34 | 21.66720 | 39.16825 | 43 ft | 0 kts | 66° |
| 2026-05-04 15:39 | 21.66720 | 39.16828 | 46 ft | 0 kts | 69° |
| 2026-05-04 15:39 | 21.66721 | 39.16832 | 46 ft | 2 kts | 76° |
| 2026-05-04 15:39 | 21.66678 | 39.16934 | 48 ft | 11 kts | 149° |
| 2026-05-04 15:40 | 21.66583 | 39.16971 | 47 ft | 18 kts | 161° |
| 2026-05-04 15:40 | 21.66443 | 39.17011 | 48 ft | 24 kts | 168° |
| 2026-05-04 15:40 | 21.66293 | 39.16966 | 45 ft | 22 kts | 236° |
| 2026-05-04 15:40 | 21.66241 | 39.16801 | 44 ft | 25 kts | 250° |
| 2026-05-04 15:41 | 21.66179 | 39.16618 | 42 ft | 24 kts | 249° |
| 2026-05-04 15:41 | 21.66172 | 39.16595 | 42 ft | 0 kts | 250° |
| 2026-05-04 15:42 | 21.66169 | 39.16586 | 42 ft | 4 kts | 251° |
| 2026-05-04 15:42 | 21.66153 | 39.16537 | 41 ft | 10 kts | 251° |
| 2026-05-04 15:42 | 21.66169 | 39.16474 | 41 ft | 9 kts | 313° |
| 2026-05-04 15:42 | 21.66223 | 39.16447 | 41 ft | 9 kts | 342° |
| 2026-05-04 15:43 | 21.66470 | 39.16351 | 43 ft | 85 kts | 340° |
| 2026-05-04 15:43 | 21.67320 | 39.16023 | 151 ft | 168 kts | 343° |
| 2026-05-04 15:43 | 21.68600 | 39.15549 | 740 ft | 214 kts | 338° |
| 2026-05-04 15:43 | 21.70002 | 39.14954 | 2223 ft | 222 kts | 338° |
| 2026-05-04 15:44 | 21.71392 | 39.14399 | 3875 ft | 209 kts | 340° |
| 2026-05-04 15:44 | 21.72876 | 39.13823 | 4851 ft | 234 kts | 339° |
| 2026-05-04 15:44 | 21.74493 | 39.13190 | 5800 ft | 263 kts | 338° |
| 2026-05-04 15:44 | 21.76249 | 39.12494 | 5975 ft | 270 kts | 338° |
| 2026-05-04 15:45 | 21.78014 | 39.11794 | 5985 ft | 268 kts | 338° |
| 2026-05-04 15:45 | 21.79745 | 39.11111 | 5981 ft | 270 kts | 338° |
| 2026-05-04 15:45 | 21.81517 | 39.10412 | 5983 ft | 271 kts | 338° |
| 2026-05-04 15:45 | 21.83281 | 39.09713 | 5983 ft | 270 kts | 338° |
| 2026-05-04 15:46 | 21.85040 | 39.09019 | 5981 ft | 269 kts | 338° |
| 2026-05-04 15:46 | 21.86807 | 39.08320 | 5984 ft | 270 kts | 338° |
| 2026-05-04 15:46 | 21.88568 | 39.07622 | 5988 ft | 271 kts | 338° |
| 2026-05-04 15:46 | 21.90305 | 39.06865 | 5987 ft | 268 kts | 332° |
| 2026-05-04 15:47 | 21.92011 | 39.06024 | 5985 ft | 270 kts | 335° |
| 2026-05-04 15:47 | 21.93717 | 39.05253 | 5988 ft | 269 kts | 335° |
| 2026-05-04 15:47 | 21.95437 | 39.04443 | 5991 ft | 275 kts | 334° |
| 2026-05-04 15:47 | 21.97303 | 39.03540 | 6007 ft | 312 kts | 334° |
| 2026-05-04 15:48 | 21.99327 | 39.02569 | 6011 ft | 323 kts | 335° |
| 2026-05-04 15:48 | 22.01392 | 39.01590 | 6012 ft | 325 kts | 335° |
| 2026-05-04 15:48 | 22.05505 | 38.99621 | 6070 ft | 323 kts | 335° |
| 2026-05-04 15:49 | 22.07585 | 38.98625 | 6613 ft | 329 kts | 335° |
| 2026-05-04 15:49 | 22.09685 | 38.97622 | 7954 ft | 333 kts | 335° |
| 2026-05-04 15:49 | 22.11799 | 38.96610 | 9313 ft | 341 kts | 334° |
| 2026-05-04 15:49 | 22.13995 | 38.95557 | 10542 ft | 350 kts | 334° |
| 2026-05-04 15:50 | 22.16249 | 38.94475 | 11725 ft | 359 kts | 334° |
| 2026-05-04 15:50 | 22.18562 | 38.93369 | 12930 ft | 368 kts | 334° |
| 2026-05-04 15:50 | 22.20935 | 38.92238 | 14092 ft | 376 kts | 334° |
| 2026-05-04 15:50 | 22.23344 | 38.91086 | 15280 ft | 381 kts | 333° |
| 2026-05-04 15:51 | 22.25786 | 38.89917 | 16451 ft | 387 kts | 333° |
| 2026-05-04 15:51 | 22.28266 | 38.88731 | 17596 ft | 392 kts | 333° |
| 2026-05-04 15:51 | 22.30775 | 38.87525 | 18617 ft | 398 kts | 333° |
| 2026-05-04 15:51 | 22.33322 | 38.86302 | 19545 ft | 404 kts | 333° |
| 2026-05-04 15:52 | 22.35872 | 38.85079 | 20467 ft | 409 kts | 333° |
| 2026-05-04 15:52 | 22.38495 | 38.83820 | 21380 ft | 415 kts | 333° |
| 2026-05-04 15:52 | 22.41149 | 38.82545 | 22232 ft | 421 kts | 333° |
| 2026-05-04 15:52 | 22.43844 | 38.81249 | 23118 ft | 426 kts | 333° |
| 2026-05-04 15:53 | 22.46571 | 38.79938 | 23860 ft | 431 kts | 332° |
| 2026-05-04 15:53 | 22.49327 | 38.78613 | 24558 ft | 436 kts | 332° |
| 2026-05-04 15:53 | 22.52110 | 38.77273 | 25265 ft | 440 kts | 332° |
| 2026-05-04 15:53 | 22.54924 | 38.75918 | 25953 ft | 445 kts | 331° |
| 2026-05-04 15:54 | 22.57723 | 38.74569 | 26622 ft | 449 kts | 331° |
| 2026-05-04 15:54 | 22.60588 | 38.73189 | 27282 ft | 453 kts | 330° |
| 2026-05-04 15:54 | 22.63478 | 38.71795 | 27928 ft | 457 kts | 330° |
| 2026-05-04 15:54 | 22.66444 | 38.70475 | 28543 ft | 463 kts | 332° |
| 2026-05-04 15:55 | 22.69434 | 38.69144 | 29156 ft | 466 kts | 331° |
| 2026-05-04 15:55 | 22.72441 | 38.67788 | 29759 ft | 471 kts | 331° |
| 2026-05-04 15:55 | 22.75486 | 38.66438 | 30268 ft | 475 kts | 331° |
| 2026-05-04 15:55 | 22.78560 | 38.65086 | 30736 ft | 479 kts | 331° |
| 2026-05-04 15:56 | 22.81610 | 38.63734 | 31192 ft | 482 kts | 330° |
| 2026-05-04 15:56 | 22.84719 | 38.62347 | 31653 ft | 485 kts | 330° |
| 2026-05-04 15:56 | 22.87852 | 38.60952 | 32082 ft | 489 kts | 330° |
| 2026-05-04 15:56 | 22.91015 | 38.59549 | 32483 ft | 492 kts | 330° |
| 2026-05-04 15:57 | 22.94192 | 38.58138 | 32915 ft | 495 kts | 330° |
| 2026-05-04 15:57 | 22.97384 | 38.56717 | 33486 ft | 495 kts | 330° |
| 2026-05-04 15:57 | 23.00564 | 38.55302 | 34060 ft | 493 kts | 329° |
| 2026-05-04 15:57 | 23.03732 | 38.53891 | 34614 ft | 491 kts | 329° |
| 2026-05-04 15:58 | 23.06845 | 38.52503 | 35151 ft | 490 kts | 329° |
| 2026-05-04 15:58 | 23.09990 | 38.51100 | 35681 ft | 488 kts | 329° |
| 2026-05-04 15:58 | 23.13129 | 38.49699 | 36223 ft | 486 kts | 329° |
| 2026-05-04 15:58 | 23.16251 | 38.48306 | 36781 ft | 484 kts | 329° |
| 2026-05-04 15:59 | 23.19362 | 38.46917 | 37329 ft | 482 kts | 329° |
| 2026-05-04 15:59 | 23.22455 | 38.45534 | 37867 ft | 480 kts | 329° |
| 2026-05-04 15:59 | 23.25542 | 38.44153 | 38019 ft | 478 kts | 329° |
| 2026-05-04 15:59 | 23.28591 | 38.42793 | 38013 ft | 472 kts | 329° |
| 2026-05-04 16:00 | 23.34666 | 38.40067 | 38022 ft | 472 kts | 329° |
| 2026-05-04 16:00 | 23.40703 | 38.37365 | 38016 ft | 473 kts | 329° |
| 2026-05-04 16:01 | 23.46788 | 38.34634 | 38019 ft | 473 kts | 329° |
| 2026-05-04 16:01 | 23.52876 | 38.31901 | 38021 ft | 474 kts | 329° |
| 2026-05-04 16:02 | 23.57471 | 38.29836 | 37859 ft | 474 kts | 329° |
| 2026-05-04 16:03 | 23.66561 | 38.25744 | 37841 ft | 474 kts | 329° |
| 2026-05-04 16:03 | 23.72659 | 38.22999 | 37839 ft | 474 kts | 328° |
| 2026-05-04 16:04 | 23.78752 | 38.20250 | 37841 ft | 474 kts | 328° |
| 2026-05-04 16:04 | 23.87894 | 38.16121 | 37804 ft | 474 kts | 328° |
| 2026-05-04 16:05 | 23.93960 | 38.13377 | 37790 ft | 475 kts | 328° |
| 2026-05-04 16:06 | 24.03116 | 38.09232 | 37765 ft | 475 kts | 328° |
| 2026-05-04 16:07 | 24.15177 | 38.03573 | 37767 ft | 467 kts | 321° |
| 2026-05-04 16:08 | 24.25857 | 37.95695 | 37763 ft | 461 kts | 316° |
| 2026-05-04 16:09 | 24.39110 | 37.85741 | 37795 ft | 463 kts | 316° |
| 2026-05-04 16:10 | 24.49700 | 37.77771 | 37828 ft | 463 kts | 316° |
| 2026-05-04 16:11 | 24.60385 | 37.69714 | 37854 ft | 466 kts | 316° |
| 2026-05-04 16:12 | 24.76394 | 37.57606 | 37885 ft | 467 kts | 316° |
| 2026-05-04 16:13 | 24.87107 | 37.49483 | 37907 ft | 467 kts | 316° |
| 2026-05-04 16:14 | 24.97775 | 37.41376 | 37910 ft | 468 kts | 316° |
| 2026-05-04 16:16 | 25.11155 | 37.31185 | 37907 ft | 468 kts | 316° |
| 2026-05-04 16:17 | 25.24491 | 37.20999 | 37918 ft | 467 kts | 316° |
| 2026-05-04 16:18 | 25.35176 | 37.12817 | 37909 ft | 467 kts | 316° |
| 2026-05-04 16:19 | 25.48481 | 37.02602 | 37896 ft | 467 kts | 315° |
| 2026-05-04 16:20 | 25.61795 | 36.92351 | 37904 ft | 466 kts | 315° |
| 2026-05-04 16:22 | 25.75078 | 36.82097 | 37911 ft | 467 kts | 315° |
| 2026-05-04 16:23 | 25.91020 | 36.69750 | 37924 ft | 467 kts | 315° |
| 2026-05-04 16:25 | 26.07001 | 36.57332 | 37924 ft | 467 kts | 315° |
| 2026-05-04 16:26 | 26.18417 | 36.50219 | 37927 ft | 493 kts | 335° |
| 2026-05-04 16:26 | 26.28977 | 36.49418 | 37922 ft | 520 kts | 353° |
| 2026-05-04 16:28 | 26.47002 | 36.50402 | 37933 ft | 520 kts | 353° |
| 2026-05-04 16:29 | 26.72315 | 36.51800 | 37944 ft | 521 kts | 353° |
| 2026-05-04 16:31 | 26.90416 | 36.52801 | 37949 ft | 523 kts | 353° |
| 2026-05-04 16:32 | 27.12182 | 36.54009 | 37951 ft | 524 kts | 353° |
| 2026-05-04 16:33 | 27.26746 | 36.54824 | 37960 ft | 524 kts | 353° |
| 2026-05-04 16:34 | 27.37672 | 36.55435 | 37975 ft | 525 kts | 353° |
| 2026-05-04 16:35 | 27.59485 | 36.56660 | 37987 ft | 525 kts | 353° |
| 2026-05-04 16:36 | 27.70426 | 36.57276 | 37993 ft | 526 kts | 353° |
| 2026-05-04 16:37 | 27.81326 | 36.57893 | 37985 ft | 525 kts | 353° |
| 2026-05-04 16:38 | 27.95945 | 36.58720 | 37989 ft | 526 kts | 353° |
| 2026-05-04 16:39 | 28.14186 | 36.59757 | 37960 ft | 525 kts | 353° |
| 2026-05-04 16:40 | 28.28822 | 36.60589 | 37950 ft | 527 kts | 353° |
| 2026-05-04 16:41 | 28.46595 | 36.59228 | 37946 ft | 508 kts | 340° |
| 2026-05-04 16:43 | 28.64045 | 36.56109 | 37983 ft | 508 kts | 339° |
| 2026-05-04 16:43 | 28.74479 | 36.54234 | 38002 ft | 508 kts | 339° |
| 2026-05-04 16:45 | 28.95146 | 36.50514 | 38007 ft | 509 kts | 339° |
| 2026-05-04 16:46 | 29.12594 | 36.47361 | 38010 ft | 510 kts | 339° |
| 2026-05-04 16:47 | 29.26611 | 36.44828 | 38011 ft | 510 kts | 339° |
| 2026-05-04 16:48 | 29.40585 | 36.42294 | 38018 ft | 510 kts | 339° |
| 2026-05-04 16:49 | 29.54594 | 36.39764 | 38016 ft | 509 kts | 339° |
| 2026-05-04 16:50 | 29.68538 | 36.37240 | 38025 ft | 509 kts | 339° |
| 2026-05-04 16:51 | 29.78964 | 36.35147 | 38020 ft | 507 kts | 338° |
| 2026-05-04 16:52 | 29.92801 | 36.32296 | 38025 ft | 507 kts | 338° |
| 2026-05-04 16:53 | 30.03240 | 36.30145 | 38028 ft | 508 kts | 338° |
| 2026-05-04 16:54 | 30.17186 | 36.27267 | 38032 ft | 510 kts | 338° |
| 2026-05-04 16:55 | 30.38184 | 36.23114 | 38029 ft | 512 kts | 338° |
| 2026-05-04 16:56 | 30.53574 | 36.20092 | 38043 ft | 512 kts | 338° |
| 2026-05-04 17:02 | 30.64428 | 36.17974 | 38029 ft | 489 kts | 337° |
| 2026-05-04 17:02 | 30.70955 | 36.16675 | 38019 ft | 463 kts | 336° |
| 2026-05-04 17:03 | 30.75096 | 36.15857 | 37967 ft | 449 kts | 336° |
| 2026-05-04 17:03 | 30.78156 | 36.15248 | 37669 ft | 442 kts | 336° |
| 2026-05-04 17:03 | 30.84195 | 36.14338 | 36525 ft | 444 kts | 347° |
| 2026-05-04 17:04 | 30.89301 | 36.14416 | 35534 ft | 437 kts | 348° |
| 2026-05-04 17:04 | 30.95308 | 36.14538 | 34403 ft | 426 kts | 347° |
| 2026-05-04 17:05 | 31.02109 | 36.14656 | 32982 ft | 415 kts | 347° |
| 2026-05-04 17:05 | 31.06893 | 36.14746 | 31938 ft | 407 kts | 347° |
| 2026-05-04 17:06 | 31.12449 | 36.14847 | 30638 ft | 397 kts | 347° |
| 2026-05-04 17:06 | 31.15210 | 36.15006 | 29890 ft | 404 kts | 357° |
| 2026-05-04 17:07 | 31.21511 | 36.17385 | 28076 ft | 410 kts | 12° |
| 2026-05-04 17:07 | 31.22412 | 36.17803 | 27818 ft | 408 kts | 12° |
| 2026-05-04 17:07 | 31.25903 | 36.19431 | 26872 ft | 400 kts | 12° |
| 2026-05-04 17:07 | 31.28473 | 36.20628 | 26182 ft | 395 kts | 12° |
| 2026-05-04 17:08 | 31.30970 | 36.21787 | 25518 ft | 389 kts | 12° |
| 2026-05-04 17:08 | 31.35940 | 36.24100 | 24204 ft | 379 kts | 12° |
| 2026-05-04 17:08 | 31.38371 | 36.25233 | 23557 ft | 374 kts | 13° |
| 2026-05-04 17:09 | 31.40805 | 36.26362 | 22321 ft | 381 kts | 13° |
| 2026-05-04 17:09 | 31.43296 | 36.27516 | 21086 ft | 387 kts | 14° |
| 2026-05-04 17:09 | 31.45784 | 36.28684 | 19923 ft | 390 kts | 14° |
| 2026-05-04 17:10 | 31.50873 | 36.30384 | 17603 ft | 368 kts | 353° |
| 2026-05-04 17:10 | 31.57844 | 36.29511 | 15268 ft | 329 kts | 4° |
| 2026-05-04 17:11 | 31.60031 | 36.30207 | 14667 ft | 322 kts | 11° |
| 2026-05-04 17:11 | 31.62125 | 36.31042 | 14073 ft | 313 kts | 12° |
| 2026-05-04 17:11 | 31.66084 | 36.32894 | 12843 ft | 310 kts | 31° |
| 2026-05-04 17:12 | 31.67628 | 36.34683 | 12346 ft | 312 kts | 47° |
| 2026-05-04 17:12 | 31.69784 | 36.39070 | 11384 ft | 317 kts | 78° |
| 2026-05-04 17:13 | 31.70806 | 36.46734 | 10037 ft | 314 kts | 85° |
| 2026-05-04 17:14 | 31.71681 | 36.54037 | 8578 ft | 292 kts | 76° |
| 2026-05-04 17:14 | 31.72697 | 36.56009 | 8053 ft | 284 kts | 38° |
| 2026-05-04 17:14 | 31.76178 | 36.57265 | 7070 ft | 256 kts | 356° |
| 2026-05-04 17:15 | 31.77940 | 36.57395 | 6603 ft | 253 kts | 355° |
| 2026-05-04 17:15 | 31.81112 | 36.56721 | 5994 ft | 221 kts | 308° |
| 2026-05-04 17:16 | 31.81675 | 36.53421 | 6005 ft | 210 kts | 266° |
| 2026-05-04 17:16 | 31.81342 | 36.48443 | 5943 ft | 186 kts | 265° |
| 2026-05-04 17:17 | 31.81242 | 36.46997 | 5955 ft | 169 kts | 265° |
| 2026-05-04 17:17 | 31.80907 | 36.42956 | 5952 ft | 164 kts | 258° |
| 2026-05-04 17:18 | 31.80662 | 36.41637 | 5955 ft | 167 kts | 258° |
| 2026-05-04 17:18 | 31.80174 | 36.39005 | 5955 ft | 165 kts | 258° |
| 2026-05-04 17:19 | 31.79669 | 36.36381 | 5957 ft | 165 kts | 257° |
| 2026-05-04 17:19 | 31.78767 | 36.33905 | 5974 ft | 166 kts | 246° |
| 2026-05-04 17:20 | 31.77737 | 36.31495 | 5954 ft | 165 kts | 253° |
| 2026-05-04 17:20 | 31.77263 | 36.28797 | 5987 ft | 185 kts | 260° |
| 2026-05-04 17:20 | 31.77045 | 36.27307 | 5993 ft | 186 kts | 260° |
| 2026-05-04 17:21 | 31.76605 | 36.24254 | 5994 ft | 204 kts | 260° |
| 2026-05-04 17:21 | 31.76127 | 36.20937 | 5887 ft | 211 kts | 260° |
| 2026-05-04 17:22 | 31.75873 | 36.19190 | 5609 ft | 214 kts | 260° |
| 2026-05-04 17:22 | 31.75620 | 36.17455 | 5322 ft | 215 kts | 261° |
| 2026-05-04 17:23 | 31.74968 | 36.12872 | 4555 ft | 159 kts | 261° |
| 2026-05-04 17:23 | 31.74786 | 36.11615 | 4349 ft | 157 kts | 261° |
| 2026-05-04 17:23 | 31.74424 | 36.09112 | 3938 ft | 150 kts | 262° |
| 2026-05-04 17:24 | 31.74258 | 36.07978 | 3743 ft | 139 kts | 262° |
| 2026-05-04 17:24 | 31.73811 | 36.04814 | 3146 ft | 126 kts | 262° |
| 2026-05-04 17:25 | 31.73676 | 36.03882 | 2919 ft | 111 kts | 259° |
| 2026-05-04 17:25 | 31.73422 | 36.02130 | 2556 ft | 110 kts | 261° |
| 2026-05-04 17:26 | 31.73205 | 36.00550 | 2423 ft | 66 kts | 259° |
| 2026-05-04 17:26 | 31.73091 | 35.99809 | 2421 ft | 30 kts | 260° |
| 2026-05-04 17:27 | 31.72988 | 35.99066 | 2425 ft | 57 kts | 260° |
| 2026-05-04 17:27 | 31.72783 | 35.98189 | 2421 ft | 25 kts | 200° |
| 2026-05-04 17:28 | 31.72613 | 35.98514 | 2422 ft | 39 kts | 80° |
| 2026-05-04 17:29 | 31.72484 | 35.98857 | 2421 ft | 10 kts | 186° |
| 2026-05-04 17:29 | 31.72456 | 35.98861 | 2421 ft | 0 kts | 173° |